Terminal Aerodrome Forecast
Issued by NWS Glasgow, MT

Home | Current Version | Previous Version | Text Only | Print | Product List | Glossary On
Versions: 1 2 3 4 5 6 7 8 9 10 11 12 13 14 15 16 17 18
782
FTUS45 KGGW 131720
TAFGGW
TAF
KGGW 131720Z 1318/1418 20005KT 4SM FZRA BKN040
     FM131830 29008KT P6SM VCSH OVC100
     FM140000 29013KT P6SM BKN090
     FM140900 28009KT P6SM BKN250=

USA.gov is the U.S. government's official web portal to all federal, state and local government web resources and services.